Kewanee, Illinois
Current Conditions -  °F | °C
As of 2:35 PM on Tuesday 25 Nov 2014 (Local Time) from KC75 Reporting Station
Overcast Overcast  
Wind Chill: 25°   Ceiling: 1600
Heat Index: 25°   Visibility: 10mi
Dew Point: 18°   Wind: 3mph
Humidity: 75%   Direction: 250°WSW
Pressure: 30.16"   Gusts: NA
Location:  41.25°N, 89.92°W
Report Text: KC75 252035Z AUTO 25003KT 10SM OVC016 M04/M08 A3016 RMK AO2 T10401078
Loading
Personal Weather Stations






























Interactive Weather Map New forecast layout! Learn more

10-Day Weather Forecast

Advertisements
Track Severe Weather on mobile